logo
Rechercher aéroport 
image banner adimage banner adimage banner ad
image banner ad

CN13 - Borges - Clarksburg

Situé à Clarksburg, United States

ICAO - CN13, IATA -

Données fournies par Airmate  

Information générale

Coordonnées: N38°26'36" W121°30'32"
Élévation : 12 feet MSL.
Variation magnétique : 16° East
Voir autres Aéroports à California

Données opérationnelles

Special qualification required
Heure actuelle UTC:
Heure actuelle locale:
Météo à : KSAC - Sacramento Executive ( 8 km )
METAR: KSAC 011653Z VRB05KT 10SM CLR 19/13 A2981 RMK AO2 SLP094 T01940128
TAF: KSAC 011122Z 0112/0212 VRB05KT P6SM SKC
Voir NOTAMs / SUP AIP / TFR affectant cet aéroport [VIEW]
Fréquences de communication: [VIEW]

Pistes:

Identifiant RWYQFULongueur (ft)Largeur (ft)SurfaceLDA (ft)
09226090GRASS
27226090GRASS

Coordonnées de l'aéroport

Adresse: Clarksburg United States

Vue satellite de CN13